sensor_id;sensor_type;location;lat;lon;timestamp;pressure;altitude;pressure_sealevel;temperature
70668;BMP280;58242;51.250;-1.118;2022-07-06T00:02:14;101480.00;;;22.05
70668;BMP280;58242;51.250;-1.118;2022-07-06T00:04:39;101486.56;;;22.01
70668;BMP280;58242;51.250;-1.118;2022-07-06T00:07:04;101471.31;;;21.96
70668;BMP280;58242;51.250;-1.118;2022-07-06T00:09:30;101474.34;;;21.92
70668;BMP280;58242;51.250;-1.118;2022-07-06T00:11:55;101482.81;;;21.87
70668;BMP280;58242;51.250;-1.118;2022-07-06T00:14:21;101480.03;;;21.83
70668;BMP280;58242;51.250;-1.118;2022-07-06T00:16:46;101472.91;;;21.79
70668;BMP280;58242;51.250;-1.118;2022-07-06T00:19:11;101483.75;;;21.76
70668;BMP280;58242;51.250;-1.118;2022-07-06T00:21:37;101477.47;;;21.72
70668;BMP280;58242;51.250;-1.118;2022-07-06T00:24:03;101499.19;;;21.68
70668;BMP280;58242;51.250;-1.118;2022-07-06T00:26:29;101498.34;;;21.64
70668;BMP280;58242;51.250;-1.118;2022-07-06T00:28:54;101485.81;;;21.60
70668;BMP280;58242;51.250;-1.118;2022-07-06T00:31:20;101495.84;;;21.56
70668;BMP280;58242;51.250;-1.118;2022-07-06T00:33:45;101495.00;;;21.52
70668;BMP280;58242;51.250;-1.118;2022-07-06T00:36:11;101494.94;;;21.49
70668;BMP280;58242;51.250;-1.118;2022-07-06T00:38:36;101494.50;;;21.47
70668;BMP280;58242;51.250;-1.118;2022-07-06T00:41:01;101492.53;;;21.44
70668;BMP280;58242;51.250;-1.118;2022-07-06T00:43:27;101489.38;;;21.42
70668;BMP280;58242;51.250;-1.118;2022-07-06T00:45:52;101485.78;;;21.38
70668;BMP280;58242;51.250;-1.118;2022-07-06T00:48:17;101479.13;;;21.36
70668;BMP280;58242;51.250;-1.118;2022-07-06T00:50:43;101486.06;;;21.33
70668;BMP280;58242;51.250;-1.118;2022-07-06T00:53:08;101482.16;;;21.31
70668;BMP280;58242;51.250;-1.118;2022-07-06T00:55:38;101484.00;;;21.27
70668;BMP280;58242;51.250;-1.118;2022-07-06T00:58:05;101483.94;;;21.24
70668;BMP280;58242;51.250;-1.118;2022-07-06T01:00:32;101484.22;;;21.19
70668;BMP280;58242;51.250;-1.118;2022-07-06T01:02:58;101489.59;;;21.15
70668;BMP280;58242;51.250;-1.118;2022-07-06T01:05:24;101483.69;;;21.10
70668;BMP280;58242;51.250;-1.118;2022-07-06T01:07:51;101490.59;;;21.08
70668;BMP280;58242;51.250;-1.118;2022-07-06T01:10:18;101493.22;;;21.04
70668;BMP280;58242;51.250;-1.118;2022-07-06T01:12:46;101494.75;;;21.02
70668;BMP280;58242;51.250;-1.118;2022-07-06T01:15:14;101493.09;;;20.97
70668;BMP280;58242;51.250;-1.118;2022-07-06T01:17:40;101493.81;;;20.94
70668;BMP280;58242;51.250;-1.118;2022-07-06T01:20:19;101495.69;;;20.90
70668;BMP280;58242;51.250;-1.118;2022-07-06T01:22:46;101496.38;;;20.88
70668;BMP280;58242;51.250;-1.118;2022-07-06T01:25:12;101491.66;;;20.85
70668;BMP280;58242;51.250;-1.118;2022-07-06T01:27:39;101493.50;;;20.81
70668;BMP280;58242;51.250;-1.118;2022-07-06T01:30:07;101494.22;;;20.78
70668;BMP280;58242;51.250;-1.118;2022-07-06T01:32:35;101490.63;;;20.74
70668;BMP280;58242;51.250;-1.118;2022-07-06T01:35:00;101490.56;;;20.71
70668;BMP280;58242;51.250;-1.118;2022-07-06T01:37:26;101488.91;;;20.66
70668;BMP280;58242;51.250;-1.118;2022-07-06T01:39:51;101484.19;;;20.63
70668;BMP280;58242;51.250;-1.118;2022-07-06T01:42:16;101487.63;;;20.60
70668;BMP280;58242;51.250;-1.118;2022-07-06T01:44:43;101493.78;;;20.57
70668;BMP280;58242;51.250;-1.118;2022-07-06T01:47:09;101488.25;;;20.54
70668;BMP280;58242;51.250;-1.118;2022-07-06T01:49:35;101481.97;;;20.50
70668;BMP280;58242;51.250;-1.118;2022-07-06T01:52:00;101489.25;;;20.46
70668;BMP280;58242;51.250;-1.118;2022-07-06T01:54:25;101481.00;;;20.43
70668;BMP280;58242;51.250;-1.118;2022-07-06T01:56:51;101480.13;;;20.39
70668;BMP280;58242;51.250;-1.118;2022-07-06T01:59:16;101480.84;;;20.36
70668;BMP280;58242;51.250;-1.118;2022-07-06T02:01:41;101480.78;;;20.33
70668;BMP280;58242;51.250;-1.118;2022-07-06T02:04:07;101482.59;;;20.29
70668;BMP280;58242;51.250;-1.118;2022-07-06T02:06:32;101475.16;;;20.26
70668;BMP280;58242;51.250;-1.118;2022-07-06T02:08:57;101489.78;;;20.21
70668;BMP280;58242;51.250;-1.118;2022-07-06T02:11:23;101488.91;;;20.18
70668;BMP280;58242;51.250;-1.118;2022-07-06T02:13:48;101486.91;;;20.15
70668;BMP280;58242;51.250;-1.118;2022-07-06T02:16:13;101483.31;;;20.11
70668;BMP280;58242;51.250;-1.118;2022-07-06T02:18:39;101489.09;;;20.09
70668;BMP280;58242;51.250;-1.118;2022-07-06T02:21:05;101485.94;;;20.07
70668;BMP280;58242;51.250;-1.118;2022-07-06T02:23:30;101482.03;;;20.05
70668;BMP280;58242;51.250;-1.118;2022-07-06T02:25:56;101490.50;;;20.04
70668;BMP280;58242;51.250;-1.118;2022-07-06T02:28:21;101488.13;;;20.02
70668;BMP280;58242;51.250;-1.118;2022-07-06T02:30:46;101486.91;;;20.00
70668;BMP280;58242;51.250;-1.118;2022-07-06T02:33:13;101487.72;;;20.00
70668;BMP280;58242;51.250;-1.118;2022-07-06T02:35:39;101487.63;;;19.97
70668;BMP280;58242;51.250;-1.118;2022-07-06T02:38:08;101491.47;;;19.96
70668;BMP280;58242;51.250;-1.118;2022-07-06T02:40:33;101491.03;;;19.94
70668;BMP280;58242;51.250;-1.118;2022-07-06T02:42:58;101494.91;;;19.93
70668;BMP280;58242;51.250;-1.118;2022-07-06T02:45:24;101495.25;;;19.91
70668;BMP280;58242;51.250;-1.118;2022-07-06T02:47:49;101497.97;;;19.91
70668;BMP280;58242;51.250;-1.118;2022-07-06T02:50:16;101489.81;;;19.91
70668;BMP280;58242;51.250;-1.118;2022-07-06T02:52:41;101485.97;;;19.92
70668;BMP280;58242;51.250;-1.118;2022-07-06T02:55:07;101481.66;;;19.91
70668;BMP280;58242;51.250;-1.118;2022-07-06T02:57:33;101484.38;;;19.91
70668;BMP280;58242;51.250;-1.118;2022-07-06T02:59:58;101486.31;;;19.91
70668;BMP280;58242;51.250;-1.118;2022-07-06T03:02:23;101488.59;;;19.89
70668;BMP280;58242;51.250;-1.118;2022-07-06T03:04:49;101491.31;;;19.89
70668;BMP280;58242;51.250;-1.118;2022-07-06T03:07:15;101498.22;;;19.87
70668;BMP280;58242;51.250;-1.118;2022-07-06T03:09:40;101502.09;;;19.86
70668;BMP280;58242;51.250;-1.118;2022-07-06T03:12:06;101497.34;;;19.83
70668;BMP280;58242;51.250;-1.118;2022-07-06T03:14:32;101498.50;;;19.82
70668;BMP280;58242;51.250;-1.118;2022-07-06T03:16:57;101491.03;;;19.79
70668;BMP280;58242;51.250;-1.118;2022-07-06T03:19:22;101481.25;;;19.74
70668;BMP280;58242;51.250;-1.118;2022-07-06T03:21:48;101477.28;;;19.72
70668;BMP280;58242;51.250;-1.118;2022-07-06T03:24:13;101483.09;;;19.70
70668;BMP280;58242;51.250;-1.118;2022-07-06T03:26:38;101480.69;;;19.69
70668;BMP280;58242;51.250;-1.118;2022-07-06T03:29:04;101476.78;;;19.67
70668;BMP280;58242;51.250;-1.118;2022-07-06T03:31:29;101483.66;;;19.64
70668;BMP280;58242;51.250;-1.118;2022-07-06T03:33:54;101473.53;;;19.61
70668;BMP280;58242;51.250;-1.118;2022-07-06T03:36:20;101475.03;;;19.59
70668;BMP280;58242;51.250;-1.118;2022-07-06T03:38:45;101469.50;;;19.55
70668;BMP280;58242;51.250;-1.118;2022-07-06T03:41:11;101470.97;;;19.53
70668;BMP280;58242;51.250;-1.118;2022-07-06T03:43:36;101475.47;;;19.49
70668;BMP280;58242;51.250;-1.118;2022-07-06T03:46:02;101473.13;;;19.48
70668;BMP280;58242;51.250;-1.118;2022-07-06T03:48:28;101480.81;;;19.46
70668;BMP280;58242;51.250;-1.118;2022-07-06T03:50:54;101478.81;;;19.43
70668;BMP280;58242;51.250;-1.118;2022-07-06T03:53:20;101485.38;;;19.42
70668;BMP280;58242;51.250;-1.118;2022-07-06T03:55:45;101481.44;;;19.39
70668;BMP280;58242;51.250;-1.118;2022-07-06T03:58:33;101495.31;;;19.38
70668;BMP280;58242;51.250;-1.118;2022-07-06T04:00:59;101488.34;;;19.37
70668;BMP280;58242;51.250;-1.118;2022-07-06T04:03:24;101480.56;;;19.35
70668;BMP280;58242;51.250;-1.118;2022-07-06T04:05:50;101478.97;;;19.35
70668;BMP280;58242;51.250;-1.118;2022-07-06T04:08:15;101471.94;;;19.34
70668;BMP280;58242;51.250;-1.118;2022-07-06T04:10:41;101481.25;;;19.33
70668;BMP280;58242;51.250;-1.118;2022-07-06T04:13:06;101471.53;;;19.32
70668;BMP280;58242;51.250;-1.118;2022-07-06T04:15:31;101479.22;;;19.30
70668;BMP280;58242;51.250;-1.118;2022-07-06T04:17:57;101469.16;;;19.30
70668;BMP280;58242;51.250;-1.118;2022-07-06T04:20:24;101469.50;;;19.29
70668;BMP280;58242;51.250;-1.118;2022-07-06T04:22:52;101464.78;;;19.26
70668;BMP280;58242;51.250;-1.118;2022-07-06T04:25:18;101469.44;;;19.25
70668;BMP280;58242;51.250;-1.118;2022-07-06T04:27:44;101461.72;;;19.27
70668;BMP280;58242;51.250;-1.118;2022-07-06T04:30:10;101473.03;;;19.29
70668;BMP280;58242;51.250;-1.118;2022-07-06T04:32:36;101467.69;;;19.33
70668;BMP280;58242;51.250;-1.118;2022-07-06T04:35:02;101477.50;;;19.37
70668;BMP280;58242;51.250;-1.118;2022-07-06T04:37:28;101462.44;;;19.39
70668;BMP280;58242;51.250;-1.118;2022-07-06T04:39:53;101469.88;;;19.42
70668;BMP280;58242;51.250;-1.118;2022-07-06T04:42:19;101469.97;;;19.46
70668;BMP280;58242;51.250;-1.118;2022-07-06T04:44:44;101473.13;;;19.48
70668;BMP280;58242;51.250;-1.118;2022-07-06T04:47:11;101481.16;;;19.56
70668;BMP280;58242;51.250;-1.118;2022-07-06T04:49:37;101484.47;;;19.65
70668;BMP280;58242;51.250;-1.118;2022-07-06T04:52:02;101479.66;;;19.73
70668;BMP280;58242;51.250;-1.118;2022-07-06T04:54:28;101481.84;;;19.83
70668;BMP280;58242;51.250;-1.118;2022-07-06T04:56:53;101489.03;;;19.91
70668;BMP280;58242;51.250;-1.118;2022-07-06T04:59:18;101483.75;;;19.98
70668;BMP280;58242;51.250;-1.118;2022-07-06T05:01:44;101483.16;;;20.04
70668;BMP280;58242;51.250;-1.118;2022-07-06T05:04:09;101493.84;;;20.12
70668;BMP280;58242;51.250;-1.118;2022-07-06T05:06:35;101504.06;;;20.19
70668;BMP280;58242;51.250;-1.118;2022-07-06T05:09:00;101511.59;;;20.25
70668;BMP280;58242;51.250;-1.118;2022-07-06T05:11:28;101496.28;;;20.32
70668;BMP280;58242;51.250;-1.118;2022-07-06T05:13:54;101485.56;;;20.39
70668;BMP280;58242;51.250;-1.118;2022-07-06T05:16:20;101479.59;;;20.49
70668;BMP280;58242;51.250;-1.118;2022-07-06T05:18:46;101483.25;;;20.56
70668;BMP280;58242;51.250;-1.118;2022-07-06T05:21:11;101477.56;;;20.61
70668;BMP280;58242;51.250;-1.118;2022-07-06T05:23:37;101477.63;;;20.64
70668;BMP280;58242;51.250;-1.118;2022-07-06T05:26:02;101479.63;;;20.67
70668;BMP280;58242;51.250;-1.118;2022-07-06T05:28:27;101479.34;;;20.72
70668;BMP280;58242;51.250;-1.118;2022-07-06T05:30:53;101476.31;;;20.77
70668;BMP280;58242;51.250;-1.118;2022-07-06T05:33:18;101486.22;;;20.85
70668;BMP280;58242;51.250;-1.118;2022-07-06T05:35:43;101485.94;;;20.90
70668;BMP280;58242;51.250;-1.118;2022-07-06T05:38:09;101488.72;;;20.93
70668;BMP280;58242;51.250;-1.118;2022-07-06T05:40:34;101490.38;;;20.97
70668;BMP280;58242;51.250;-1.118;2022-07-06T05:42:59;101512.63;;;21.03
70668;BMP280;58242;51.250;-1.118;2022-07-06T05:45:25;101509.53;;;21.04
70668;BMP280;58242;51.250;-1.118;2022-07-06T05:47:50;101501.84;;;21.06
70668;BMP280;58242;51.250;-1.118;2022-07-06T05:50:34;101503.41;;;21.07
70668;BMP280;58242;51.250;-1.118;2022-07-06T05:53:03;101503.13;;;21.12
70668;BMP280;58242;51.250;-1.118;2022-07-06T05:55:29;101502.84;;;21.17
70668;BMP280;58242;51.250;-1.118;2022-07-06T05:57:54;101491.31;;;21.23
70668;BMP280;58242;51.250;-1.118;2022-07-06T06:00:24;101484.81;;;21.27
70668;BMP280;58242;51.250;-1.118;2022-07-06T06:02:50;101479.88;;;21.33
70668;BMP280;58242;51.250;-1.118;2022-07-06T06:05:16;101486.91;;;21.37
70668;BMP280;58242;51.250;-1.118;2022-07-06T06:07:42;101489.28;;;21.39
70668;BMP280;58242;51.250;-1.118;2022-07-06T06:10:10;101486.22;;;21.40
70668;BMP280;58242;51.250;-1.118;2022-07-06T06:12:36;101486.63;;;21.42
70668;BMP280;58242;51.250;-1.118;2022-07-06T06:15:02;101496.84;;;21.48
70668;BMP280;58242;51.250;-1.118;2022-07-06T06:17:28;101502.81;;;21.54
70668;BMP280;58242;51.250;-1.118;2022-07-06T06:19:54;101502.94;;;21.60
70668;BMP280;58242;51.250;-1.118;2022-07-06T06:22:19;101499.97;;;21.69
70668;BMP280;58242;51.250;-1.118;2022-07-06T06:24:45;101499.75;;;21.77
70668;BMP280;58242;51.250;-1.118;2022-07-06T06:27:11;101496.88;;;21.89
70668;BMP280;58242;51.250;-1.118;2022-07-06T06:29:36;101504.47;;;22.02
70668;BMP280;58242;51.250;-1.118;2022-07-06T06:32:02;101512.84;;;22.12
70668;BMP280;58242;51.250;-1.118;2022-07-06T06:34:27;101505.19;;;22.21
70668;BMP280;58242;51.250;-1.118;2022-07-06T06:36:52;101508.09;;;22.31
70668;BMP280;58242;51.250;-1.118;2022-07-06T06:39:18;101502.75;;;22.38
70668;BMP280;58242;51.250;-1.118;2022-07-06T06:41:43;101510.22;;;22.44
70668;BMP280;58242;51.250;-1.118;2022-07-06T06:44:08;101508.78;;;22.50
70668;BMP280;58242;51.250;-1.118;2022-07-06T06:46:34;101507.72;;;22.58
70668;BMP280;58242;51.250;-1.118;2022-07-06T06:48:59;101503.19;;;22.65
70668;BMP280;58242;51.250;-1.118;2022-07-06T06:51:25;101506.84;;;22.76
70668;BMP280;58242;51.250;-1.118;2022-07-06T06:53:50;101501.09;;;22.84
70668;BMP280;58242;51.250;-1.118;2022-07-06T06:56:15;101497.72;;;22.94
70668;BMP280;58242;51.250;-1.118;2022-07-06T06:58:42;101498.22;;;23.02
70668;BMP280;58242;51.250;-1.118;2022-07-06T07:01:07;101488.19;;;23.10
70668;BMP280;58242;51.250;-1.118;2022-07-06T07:03:32;101503.88;;;23.19
70668;BMP280;58242;51.250;-1.118;2022-07-06T07:05:58;101504.44;;;23.32
70668;BMP280;58242;51.250;-1.118;2022-07-06T07:08:23;101510.06;;;23.45
70668;BMP280;58242;51.250;-1.118;2022-07-06T07:10:49;101512.19;;;23.62
70668;BMP280;58242;51.250;-1.118;2022-07-06T07:13:15;101519.38;;;23.76
70668;BMP280;58242;51.250;-1.118;2022-07-06T07:15:40;101508.16;;;23.88
70668;BMP280;58242;51.250;-1.118;2022-07-06T07:18:05;101501.63;;;23.96
70668;BMP280;58242;51.250;-1.118;2022-07-06T07:20:31;101502.47;;;24.03
70668;BMP280;58242;51.250;-1.118;2022-07-06T07:22:58;101502.91;;;24.08
70668;BMP280;58242;51.250;-1.118;2022-07-06T07:25:24;101511.91;;;24.12
70668;BMP280;58242;51.250;-1.118;2022-07-06T07:27:49;101511.16;;;24.15
70668;BMP280;58242;51.250;-1.118;2022-07-06T07:30:14;101512.03;;;24.26
70668;BMP280;58242;51.250;-1.118;2022-07-06T07:32:40;101522.25;;;24.35
70668;BMP280;58242;51.250;-1.118;2022-07-06T07:35:08;101520.75;;;24.45
70668;BMP280;58242;51.250;-1.118;2022-07-06T07:37:34;101522.38;;;24.52
70668;BMP280;58242;51.250;-1.118;2022-07-06T07:39:59;101516.19;;;24.59
70668;BMP280;58242;51.250;-1.118;2022-07-06T07:42:25;101514.69;;;24.65
70668;BMP280;58242;51.250;-1.118;2022-07-06T07:44:51;101515.09;;;24.70
70668;BMP280;58242;51.250;-1.118;2022-07-06T07:47:16;101506.19;;;24.80
70668;BMP280;58242;51.250;-1.118;2022-07-06T07:49:42;101510.13;;;24.89
70668;BMP280;58242;51.250;-1.118;2022-07-06T07:52:08;101509.78;;;25.01
70668;BMP280;58242;51.250;-1.118;2022-07-06T07:54:33;101514.13;;;25.12
70668;BMP280;58242;51.250;-1.118;2022-07-06T07:56:59;101509.50;;;25.19
70668;BMP280;58242;51.250;-1.118;2022-07-06T07:59:24;101514.97;;;25.19
70668;BMP280;58242;51.250;-1.118;2022-07-06T08:01:49;101509.94;;;25.28
70668;BMP280;58242;51.250;-1.118;2022-07-06T08:04:15;101510.38;;;25.50
70668;BMP280;58242;51.250;-1.118;2022-07-06T08:06:40;101512.00;;;25.75
70668;BMP280;58242;51.250;-1.118;2022-07-06T08:09:06;101515.59;;;25.92
70668;BMP280;58242;51.250;-1.118;2022-07-06T08:11:33;101498.75;;;26.08
70668;BMP280;58242;51.250;-1.118;2022-07-06T08:13:59;101494.78;;;26.36
70668;BMP280;58242;51.250;-1.118;2022-07-06T08:16:25;101488.84;;;26.81
70668;BMP280;58242;51.250;-1.118;2022-07-06T08:18:50;101495.38;;;27.21
70668;BMP280;58242;51.250;-1.118;2022-07-06T08:21:16;101488.13;;;27.54
70668;BMP280;58242;51.250;-1.118;2022-07-06T08:23:41;101487.09;;;27.91
70668;BMP280;58242;51.250;-1.118;2022-07-06T08:26:07;101484.09;;;28.25
70668;BMP280;58242;51.250;-1.118;2022-07-06T08:28:32;101479.13;;;28.49
70668;BMP280;58242;51.250;-1.118;2022-07-06T08:30:57;101483.69;;;28.63
70668;BMP280;58242;51.250;-1.118;2022-07-06T08:33:23;101482.84;;;28.69
70668;BMP280;58242;51.250;-1.118;2022-07-06T08:35:48;101482.47;;;28.70
70668;BMP280;58242;51.250;-1.118;2022-07-06T08:38:14;101484.50;;;28.63
70668;BMP280;58242;51.250;-1.118;2022-07-06T08:40:40;101486.56;;;28.52
70668;BMP280;58242;51.250;-1.118;2022-07-06T08:43:06;101479.22;;;28.39
70668;BMP280;58242;51.250;-1.118;2022-07-06T08:45:34;101478.56;;;28.29
70668;BMP280;58242;51.250;-1.118;2022-07-06T08:48:04;101473.00;;;28.32
70668;BMP280;58242;51.250;-1.118;2022-07-06T08:50:31;101472.25;;;28.67
70668;BMP280;58242;51.250;-1.118;2022-07-06T08:52:57;101470.09;;;29.47
70668;BMP280;58242;51.250;-1.118;2022-07-06T08:55:24;101469.94;;;30.27
70668;BMP280;58242;51.250;-1.118;2022-07-06T08:57:51;101476.44;;;31.00
70668;BMP280;58242;51.250;-1.118;2022-07-06T09:00:16;101471.47;;;31.64
70668;BMP280;58242;51.250;-1.118;2022-07-06T09:02:42;101465.44;;;32.16
70668;BMP280;58242;51.250;-1.118;2022-07-06T09:05:08;101457.19;;;32.87
70668;BMP280;58242;51.250;-1.118;2022-07-06T09:07:36;101441.03;;;33.62
70668;BMP280;58242;51.250;-1.118;2022-07-06T09:10:02;101451.81;;;34.29
70668;BMP280;58242;51.250;-1.118;2022-07-06T09:12:29;101450.81;;;34.89
70668;BMP280;58242;51.250;-1.118;2022-07-06T09:14:57;101460.81;;;35.08
70668;BMP280;58242;51.250;-1.118;2022-07-06T09:17:27;101457.75;;;35.15
70668;BMP280;58242;51.250;-1.118;2022-07-06T09:19:54;101454.00;;;35.30
70668;BMP280;58242;51.250;-1.118;2022-07-06T09:22:31;101441.56;;;35.43
70668;BMP280;58242;51.250;-1.118;2022-07-06T09:25:11;101438.66;;;35.55
70668;BMP280;58242;51.250;-1.118;2022-07-06T09:27:45;101434.94;;;35.49
70668;BMP280;58242;51.250;-1.118;2022-07-06T09:30:13;101440.03;;;35.89
70668;BMP280;58242;51.250;-1.118;2022-07-06T09:32:46;101440.28;;;36.47
70668;BMP280;58242;51.250;-1.118;2022-07-06T09:38:09;101444.31;;;37.07
70668;BMP280;58242;51.250;-1.118;2022-07-06T09:40:41;101443.72;;;37.44
70668;BMP280;58242;51.250;-1.118;2022-07-06T09:43:21;101447.13;;;37.48
70668;BMP280;58242;51.250;-1.118;2022-07-06T09:45:56;101438.69;;;37.65
70668;BMP280;58242;51.250;-1.118;2022-07-06T09:48:26;101441.28;;;37.77
70668;BMP280;58242;51.250;-1.118;2022-07-06T09:50:57;101446.50;;;37.52
70668;BMP280;58242;51.250;-1.118;2022-07-06T09:53:24;101440.34;;;37.40
70668;BMP280;58242;51.250;-1.118;2022-07-06T09:55:51;101426.56;;;37.77
70668;BMP280;58242;51.250;-1.118;2022-07-06T09:58:17;101426.09;;;38.24
70668;BMP280;58242;51.250;-1.118;2022-07-06T10:00:45;101443.94;;;38.26
70668;BMP280;58242;51.250;-1.118;2022-07-06T10:03:11;101437.06;;;37.82
70668;BMP280;58242;51.250;-1.118;2022-07-06T10:05:38;101431.88;;;37.17
70668;BMP280;58242;51.250;-1.118;2022-07-06T10:08:05;101439.06;;;36.74
70668;BMP280;58242;51.250;-1.118;2022-07-06T10:10:32;101438.94;;;36.51
70668;BMP280;58242;51.250;-1.118;2022-07-06T10:12:58;101430.84;;;36.36
70668;BMP280;58242;51.250;-1.118;2022-07-06T10:15:25;101434.22;;;36.05
70668;BMP280;58242;51.250;-1.118;2022-07-06T10:17:52;101427.25;;;35.62
70668;BMP280;58242;51.250;-1.118;2022-07-06T10:20:19;101424.00;;;35.25
70668;BMP280;58242;51.250;-1.118;2022-07-06T10:22:47;101426.22;;;34.88
70668;BMP280;58242;51.250;-1.118;2022-07-06T10:25:15;101420.78;;;34.64
70668;BMP280;58242;51.250;-1.118;2022-07-06T10:27:40;101419.88;;;34.46
70668;BMP280;58242;51.250;-1.118;2022-07-06T10:30:08;101416.81;;;34.19
70668;BMP280;58242;51.250;-1.118;2022-07-06T10:32:34;101424.47;;;33.83
70668;BMP280;58242;51.250;-1.118;2022-07-06T10:35:00;101420.16;;;33.45
70668;BMP280;58242;51.250;-1.118;2022-07-06T10:37:27;101416.34;;;33.15
70668;BMP280;58242;51.250;-1.118;2022-07-06T10:39:53;101433.25;;;32.93
70668;BMP280;58242;51.250;-1.118;2022-07-06T10:42:50;101431.91;;;32.85
70668;BMP280;58242;51.250;-1.118;2022-07-06T10:50:55;101409.00;;;33.21
70668;BMP280;58242;51.250;-1.118;2022-07-06T10:55:48;101405.78;;;33.10
70668;BMP280;58242;51.250;-1.118;2022-07-06T10:58:41;101424.28;;;32.89
70668;BMP280;58242;51.250;-1.118;2022-07-06T11:01:08;101420.09;;;32.69
70668;BMP280;58242;51.250;-1.118;2022-07-06T11:06:20;101409.06;;;32.53
70668;BMP280;58242;51.250;-1.118;2022-07-06T11:08:48;101415.00;;;32.40
70668;BMP280;58242;51.250;-1.118;2022-07-06T11:13:50;101422.50;;;31.96
70668;BMP280;58242;51.250;-1.118;2022-07-06T11:16:17;101426.34;;;31.67
70668;BMP280;58242;51.250;-1.118;2022-07-06T11:19:00;101436.09;;;31.41
70668;BMP280;58242;51.250;-1.118;2022-07-06T11:21:45;101429.25;;;31.10
70668;BMP280;58242;51.250;-1.118;2022-07-06T11:24:14;101420.72;;;30.86
70668;BMP280;58242;51.250;-1.118;2022-07-06T11:26:41;101422.75;;;30.63
70668;BMP280;58242;51.250;-1.118;2022-07-06T11:29:08;101421.41;;;30.52
70668;BMP280;58242;51.250;-1.118;2022-07-06T11:31:40;101423.53;;;30.45
70668;BMP280;58242;51.250;-1.118;2022-07-06T11:34:07;101424.84;;;30.37
70668;BMP280;58242;51.250;-1.118;2022-07-06T11:36:33;101432.88;;;30.28
70668;BMP280;58242;51.250;-1.118;2022-07-06T11:38:58;101425.13;;;30.20
70668;BMP280;58242;51.250;-1.118;2022-07-06T11:41:24;101430.13;;;30.06
70668;BMP280;58242;51.250;-1.118;2022-07-06T11:43:50;101432.44;;;29.88
70668;BMP280;58242;51.250;-1.118;2022-07-06T11:46:20;101433.78;;;29.77
70668;BMP280;58242;51.250;-1.118;2022-07-06T11:48:46;101435.22;;;29.59
70668;BMP280;58242;51.250;-1.118;2022-07-06T11:51:13;101431.59;;;29.66
70668;BMP280;58242;51.250;-1.118;2022-07-06T11:53:43;101429.19;;;29.68
70668;BMP280;58242;51.250;-1.118;2022-07-06T11:56:09;101415.84;;;29.66
70668;BMP280;58242;51.250;-1.118;2022-07-06T11:58:34;101421.34;;;29.66
70668;BMP280;58242;51.250;-1.118;2022-07-06T12:01:07;101420.56;;;29.66
70668;BMP280;58242;51.250;-1.118;2022-07-06T12:03:33;101421.75;;;29.65
70668;BMP280;58242;51.250;-1.118;2022-07-06T12:06:04;101421.03;;;29.61
70668;BMP280;58242;51.250;-1.118;2022-07-06T12:08:30;101420.66;;;29.59
70668;BMP280;58242;51.250;-1.118;2022-07-06T12:10:56;101430.56;;;29.56
70668;BMP280;58242;51.250;-1.118;2022-07-06T12:13:23;101428.63;;;29.53
70668;BMP280;58242;51.250;-1.118;2022-07-06T12:15:48;101415.38;;;29.45
70668;BMP280;58242;51.250;-1.118;2022-07-06T12:18:14;101422.63;;;29.36
70668;BMP280;58242;51.250;-1.118;2022-07-06T12:20:40;101434.94;;;29.25
70668;BMP280;58242;51.250;-1.118;2022-07-06T12:23:06;101424.84;;;29.15
70668;BMP280;58242;51.250;-1.118;2022-07-06T12:25:32;101426.88;;;29.11
70668;BMP280;58242;51.250;-1.118;2022-07-06T12:27:58;101416.53;;;29.18
70668;BMP280;58242;51.250;-1.118;2022-07-06T12:30:23;101413.91;;;29.37
70668;BMP280;58242;51.250;-1.118;2022-07-06T12:33:14;101413.97;;;29.60
70668;BMP280;58242;51.250;-1.118;2022-07-06T12:35:41;101410.84;;;29.84
70668;BMP280;58242;51.250;-1.118;2022-07-06T12:38:06;101400.28;;;30.01
70668;BMP280;58242;51.250;-1.118;2022-07-06T12:40:32;101414.16;;;30.17
70668;BMP280;58242;51.250;-1.118;2022-07-06T12:42:57;101410.56;;;30.20
70668;BMP280;58242;51.250;-1.118;2022-07-06T12:45:30;101399.13;;;30.21
70668;BMP280;58242;51.250;-1.118;2022-07-06T12:50:46;101400.22;;;30.46
70668;BMP280;58242;51.250;-1.118;2022-07-06T12:53:26;101391.13;;;30.68
70668;BMP280;58242;51.250;-1.118;2022-07-06T12:56:10;101397.47;;;30.84
70668;BMP280;58242;51.250;-1.118;2022-07-06T12:58:36;101394.06;;;30.95
70668;BMP280;58242;51.250;-1.118;2022-07-06T13:01:02;101391.84;;;31.06
70668;BMP280;58242;51.250;-1.118;2022-07-06T13:03:27;101388.09;;;31.16
70668;BMP280;58242;51.250;-1.118;2022-07-06T13:05:53;101380.66;;;31.28
70668;BMP280;58242;51.250;-1.118;2022-07-06T13:08:18;101380.22;;;31.49
70668;BMP280;58242;51.250;-1.118;2022-07-06T13:10:43;101375.19;;;31.75
70668;BMP280;58242;51.250;-1.118;2022-07-06T13:13:10;101371.03;;;31.98
70668;BMP280;58242;51.250;-1.118;2022-07-06T13:15:35;101380.00;;;32.18
70668;BMP280;58242;51.250;-1.118;2022-07-06T13:18:01;101371.47;;;32.40
70668;BMP280;58242;51.250;-1.118;2022-07-06T13:20:26;101377.50;;;32.51
70668;BMP280;58242;51.250;-1.118;2022-07-06T13:22:52;101369.44;;;32.68
70668;BMP280;58242;51.250;-1.118;2022-07-06T13:25:18;101362.97;;;32.87
70668;BMP280;58242;51.250;-1.118;2022-07-06T13:27:43;101352.69;;;33.12
70668;BMP280;58242;51.250;-1.118;2022-07-06T13:30:09;101354.94;;;33.41
70668;BMP280;58242;51.250;-1.118;2022-07-06T13:32:35;101356.56;;;33.63
70668;BMP280;58242;51.250;-1.118;2022-07-06T13:35:01;101361.66;;;33.64
70668;BMP280;58242;51.250;-1.118;2022-07-06T13:37:26;101348.16;;;33.54
70668;BMP280;58242;51.250;-1.118;2022-07-06T13:39:52;101346.38;;;33.48
70668;BMP280;58242;51.250;-1.118;2022-07-06T13:42:17;101345.50;;;33.51
70668;BMP280;58242;51.250;-1.118;2022-07-06T13:44:42;101350.59;;;33.40
70668;BMP280;58242;51.250;-1.118;2022-07-06T13:47:08;101334.63;;;33.44
70668;BMP280;58242;51.250;-1.118;2022-07-06T13:49:33;101344.13;;;33.79
70668;BMP280;58242;51.250;-1.118;2022-07-06T13:51:58;101334.09;;;33.94
70668;BMP280;58242;51.250;-1.118;2022-07-06T13:54:29;101333.44;;;33.90
70668;BMP280;58242;51.250;-1.118;2022-07-06T13:56:54;101335.03;;;33.79
70668;BMP280;58242;51.250;-1.118;2022-07-06T13:59:20;101329.28;;;33.61
70668;BMP280;58242;51.250;-1.118;2022-07-06T14:01:45;101328.75;;;33.42